createdAt,value
2022-08-21T00:00:19.114Z,16.67
2022-08-21T00:02:55.362Z,16.64
2022-08-21T00:05:23.284Z,16.62
2022-08-21T00:07:49.837Z,16.61
2022-08-21T00:10:17.162Z,16.66
2022-08-21T00:12:44.301Z,16.58
2022-08-21T00:15:14.020Z,16.58
2022-08-21T00:17:40.617Z,16.89
2022-08-21T00:20:09.697Z,16.60
2022-08-21T00:22:36.937Z,16.57
2022-08-21T00:25:05.416Z,16.49
2022-08-21T00:27:31.836Z,16.50
2022-08-21T00:29:58.390Z,16.44
2022-08-21T00:32:26.245Z,16.43
2022-08-21T00:34:53.072Z,16.46
2022-08-21T00:37:19.860Z,16.69
2022-08-21T00:39:46.415Z,16.65
2022-08-21T00:42:15.889Z,16.69
2022-08-21T00:44:44.700Z,16.78
2022-08-21T00:47:11.758Z,16.77
2022-08-21T00:49:39.478Z,16.74
2022-08-21T00:52:08.504Z,16.67
2022-08-21T00:54:35.087Z,16.62
2022-08-21T00:57:06.339Z,16.62
2022-08-21T00:59:36.176Z,16.63
2022-08-21T01:02:03.288Z,16.73
2022-08-21T01:04:29.739Z,16.71
2022-08-21T01:06:56.169Z,16.54
2022-08-21T01:09:22.664Z,16.54
2022-08-21T01:11:49.206Z,16.50
2022-08-21T01:14:16.328Z,16.50
2022-08-21T01:16:46.103Z,16.51
2022-08-21T01:19:13.769Z,16.53
2022-08-21T01:21:40.396Z,16.56
2022-08-21T01:24:06.951Z,16.60
2022-08-21T01:26:38.164Z,16.64
2022-08-21T01:29:31.715Z,16.70
2022-08-21T01:32:00.336Z,16.71
2022-08-21T01:34:26.831Z,16.71
2022-08-21T01:36:53.246Z,16.69
2022-08-21T01:39:19.804Z,16.74
2022-08-21T01:41:46.445Z,16.75
2022-08-21T01:44:12.897Z,16.73
2022-08-21T01:46:39.318Z,16.77
2022-08-21T01:49:06.334Z,16.97
2022-08-21T01:51:33.130Z,17.10
2022-08-21T01:53:59.574Z,16.96
2022-08-21T01:56:26.950Z,17.19
2022-08-21T01:58:53.367Z,17.23
2022-08-21T02:01:19.863Z,16.86
2022-08-21T02:03:46.386Z,16.88
2022-08-21T02:06:15.813Z,16.92
2022-08-21T02:08:42.231Z,16.80
2022-08-21T02:11:08.647Z,16.46
2022-08-21T02:13:35.102Z,16.39
2022-08-21T02:16:01.494Z,16.52
2022-08-21T02:18:27.911Z,16.38
2022-08-21T02:20:56.302Z,16.21
2022-08-21T02:23:27.263Z,16.18
2022-08-21T02:26:05.548Z,16.27
2022-08-21T02:28:32.410Z,16.10
2022-08-21T02:30:59.408Z,16.13
2022-08-21T02:33:26.830Z,16.13
2022-08-21T02:35:54.167Z,16.07
2022-08-21T02:38:23.887Z,15.92
2022-08-21T02:40:51.879Z,15.93
2022-08-21T02:43:20.748Z,15.94
2022-08-21T02:45:47.754Z,15.98
2022-08-21T02:48:17.996Z,16.03
2022-08-21T02:50:49.678Z,15.94
2022-08-21T02:53:17.522Z,15.81
2022-08-21T02:55:49.336Z,15.78
2022-08-21T02:58:18.801Z,15.63
2022-08-21T03:00:45.741Z,15.56
2022-08-21T03:03:14.587Z,15.50
2022-08-21T03:05:41.311Z,15.50
2022-08-21T03:08:10.403Z,15.46
2022-08-21T03:10:38.660Z,15.46
2022-08-21T03:13:05.056Z,15.40
2022-08-21T03:15:32.302Z,15.35
2022-08-21T03:17:58.745Z,15.47
2022-08-21T03:20:27.186Z,15.50
2022-08-21T03:22:54.319Z,15.37
2022-08-21T03:25:39.989Z,15.37
2022-08-21T03:28:11.767Z,15.28
2022-08-21T03:30:40.663Z,15.56
2022-08-21T03:33:07.066Z,15.44
2022-08-21T03:35:33.537Z,15.57
2022-08-21T03:38:00.183Z,15.50
2022-08-21T03:40:26.900Z,15.38
2022-08-21T03:42:53.312Z,15.21
2022-08-21T03:45:20.443Z,15.17
2022-08-21T03:48:01.755Z,15.25
2022-08-21T03:50:31.522Z,15.16
2022-08-21T03:52:58.777Z,15.00
2022-08-21T03:55:26.304Z,14.85
2022-08-21T03:57:52.747Z,14.84
2022-08-21T04:00:19.963Z,14.86
2022-08-21T04:02:46.871Z,14.94
2022-08-21T04:05:15.192Z,15.14
2022-08-21T04:07:41.631Z,15.30
2022-08-21T04:10:08.869Z,15.08
2022-08-21T04:12:35.438Z,15.00
2022-08-21T04:15:02.803Z,14.86
2022-08-21T04:17:29.228Z,14.75
2022-08-21T04:19:55.958Z,14.75
2022-08-21T04:22:22.382Z,14.70
2022-08-21T04:24:48.865Z,14.70
2022-08-21T04:27:15.284Z,14.69
2022-08-21T04:29:41.829Z,14.74
2022-08-21T04:32:08.299Z,14.63
2022-08-21T04:34:34.763Z,14.59
2022-08-21T04:37:01.184Z,14.63
2022-08-21T04:39:29.833Z,14.55
2022-08-21T04:41:56.555Z,14.65
2022-08-21T04:44:22.958Z,14.79
2022-08-21T04:46:49.379Z,14.71
2022-08-21T04:49:15.810Z,14.70
2022-08-21T04:51:42.263Z,14.82
2022-08-21T04:54:12.677Z,14.74
2022-08-21T04:57:01.316Z,14.83
2022-08-21T04:59:33.216Z,14.83
2022-08-21T05:02:01.388Z,14.80
2022-08-21T05:04:31.112Z,14.72
2022-08-21T05:07:00.560Z,14.73
2022-08-21T05:09:27.951Z,14.85
2022-08-21T05:11:55.458Z,14.83
2022-08-21T05:14:21.864Z,14.82
2022-08-21T05:16:48.337Z,14.81
2022-08-21T05:19:14.789Z,14.84
2022-08-21T05:21:43.193Z,14.97
2022-08-21T05:24:10.233Z,14.83
2022-08-21T05:26:38.314Z,14.82
2022-08-21T05:29:12.962Z,14.78
2022-08-21T05:31:39.615Z,14.81
2022-08-21T05:34:07.249Z,14.69
2022-08-21T05:36:33.612Z,14.79
2022-08-21T05:39:00.039Z,14.99
2022-08-21T05:41:26.482Z,14.99
2022-08-21T05:43:52.947Z,14.97
2022-08-21T05:46:19.313Z,14.99
2022-08-21T05:48:45.716Z,15.07
2022-08-21T05:51:14.375Z,15.13
2022-08-21T05:53:43.011Z,15.26
2022-08-21T05:56:10.258Z,15.47
2022-08-21T05:58:36.633Z,15.53
2022-08-21T06:01:04.017Z,15.55
2022-08-21T06:03:33.228Z,15.71
2022-08-21T06:05:59.644Z,15.62
2022-08-21T06:08:26.403Z,15.84
2022-08-21T06:10:53.599Z,15.86
2022-08-21T06:13:21.304Z,15.95
2022-08-21T06:15:48.063Z,15.96
2022-08-21T06:18:14.515Z,15.98
2022-08-21T06:20:41.324Z,16.17
2022-08-21T06:23:08.109Z,16.26
2022-08-21T06:25:34.886Z,16.31
2022-08-21T06:28:09.736Z,16.44
2022-08-21T06:30:38.295Z,16.44
2022-08-21T06:33:05.323Z,16.59
2022-08-21T06:35:31.725Z,16.54
2022-08-21T06:37:58.705Z,16.84
2022-08-21T06:40:26.429Z,16.80
2022-08-21T06:42:52.949Z,16.92
2022-08-21T06:45:19.899Z,17.14
2022-08-21T06:47:46.319Z,17.14
2022-08-21T06:50:13.485Z,17.20
2022-08-21T06:52:40.248Z,17.20
2022-08-21T06:55:09.282Z,17.27
2022-08-21T06:57:36.007Z,17.40
2022-08-21T07:00:05.634Z,17.36
2022-08-21T07:02:34.157Z,17.59
2022-08-21T07:05:00.595Z,17.64
2022-08-21T07:07:26.983Z,17.66
2022-08-21T07:09:53.388Z,17.81
2022-08-21T07:12:20.512Z,17.95
2022-08-21T07:14:46.916Z,18.17
2022-08-21T07:17:13.303Z,18.19
2022-08-21T07:19:39.727Z,18.29
2022-08-21T07:22:06.161Z,18.23
2022-08-21T07:24:32.588Z,18.33
2022-08-21T07:26:59.028Z,18.34
2022-08-21T07:29:25.466Z,18.51
2022-08-21T07:31:51.860Z,18.68
2022-08-21T07:34:18.368Z,18.73
2022-08-21T07:36:45.012Z,18.85
2022-08-21T07:39:11.632Z,18.89
2022-08-21T07:41:38.517Z,19.04
2022-08-21T07:44:04.915Z,19.26
2022-08-21T07:46:33.132Z,19.33
2022-08-21T07:48:59.536Z,19.40
2022-08-21T07:51:27.916Z,19.46
2022-08-21T07:53:56.691Z,19.64
2022-08-21T07:56:23.172Z,19.65
2022-08-21T07:58:49.993Z,19.79
2022-08-21T08:01:16.449Z,19.78
2022-08-21T08:03:42.914Z,20.00
2022-08-21T08:06:13.125Z,20.09
2022-08-21T08:08:41.521Z,20.14
2022-08-21T08:11:11.235Z,20.19
2022-08-21T08:13:42.770Z,20.20
2022-08-21T08:16:09.386Z,20.39
2022-08-21T08:18:35.848Z,20.32
2022-08-21T08:21:02.282Z,20.38
2022-08-21T08:23:28.704Z,20.51
2022-08-21T08:25:55.110Z,20.69
2022-08-21T08:28:22.741Z,20.79
2022-08-21T08:30:50.438Z,20.85
2022-08-21T08:33:17.896Z,21.02
2022-08-21T08:35:48.343Z,21.11
2022-08-21T08:38:20.964Z,20.97
2022-08-21T08:41:13.932Z,21.10
2022-08-21T08:43:42.330Z,21.03
2022-08-21T08:46:14.342Z,21.16
2022-08-21T08:48:53.094Z,21.21
2022-08-21T08:52:00.356Z,21.32
2022-08-21T08:54:38.275Z,21.43
2022-08-21T08:57:08.967Z,21.38
2022-08-21T08:59:50.319Z,21.40
2022-08-21T09:02:17.700Z,21.59
2022-08-21T09:04:46.640Z,21.71
2022-08-21T09:07:28.945Z,21.66
2022-08-21T09:10:13.489Z,21.74
2022-08-21T09:13:14.175Z,21.84
2022-08-21T09:16:05.011Z,21.91
2022-08-21T09:18:46.352Z,22.07
2022-08-21T09:21:32.985Z,22.00
2022-08-21T09:24:28.128Z,22.15
2022-08-21T09:27:12.428Z,22.21
2022-08-21T09:29:44.723Z,22.41
2022-08-21T09:32:24.272Z,22.40
2022-08-21T09:35:09.961Z,22.33
2022-08-21T09:37:52.710Z,22.42
2022-08-21T09:40:44.871Z,22.51
2022-08-21T09:43:26.278Z,22.72
2022-08-21T09:46:08.681Z,22.94
2022-08-21T09:48:53.272Z,22.97
2022-08-21T09:51:28.648Z,23.06
2022-08-21T09:54:07.273Z,23.28
2022-08-21T09:57:13.275Z,22.98
2022-08-21T09:59:40.184Z,22.65
2022-08-21T10:02:27.943Z,22.62
2022-08-21T10:04:57.340Z,22.88
2022-08-21T10:07:25.599Z,23.01
2022-08-21T10:10:02.420Z,23.20
2022-08-21T10:12:55.282Z,23.26
2022-08-21T10:15:53.953Z,23.59
2022-08-21T10:18:39.487Z,23.45
2022-08-21T10:21:21.219Z,23.15
2022-08-21T10:24:02.035Z,23.52
2022-08-21T10:27:00.890Z,23.99
2022-08-21T10:29:56.950Z,24.07
2022-08-21T10:32:38.262Z,24.09
2022-08-21T10:35:34.994Z,24.17
2022-08-21T10:38:48.877Z,23.90
2022-08-21T10:41:36.971Z,23.59
2022-08-21T10:44:29.583Z,24.26
2022-08-21T10:47:09.772Z,24.87
2022-08-21T10:49:36.077Z,24.94
2022-08-21T10:52:21.252Z,24.99
2022-08-21T10:54:53.831Z,24.60
2022-08-21T10:57:32.257Z,24.30
2022-08-21T11:00:12.322Z,24.67
2022-08-21T11:02:48.143Z,24.88
2022-08-21T11:05:28.346Z,24.95
2022-08-21T11:07:59.634Z,24.65
2022-08-21T11:10:32.268Z,24.42
2022-08-21T11:13:34.233Z,24.50
2022-08-21T11:16:15.312Z,24.62
2022-08-21T11:18:50.620Z,25.24
2022-08-21T11:21:37.927Z,25.30
2022-08-21T11:24:29.324Z,25.58
2022-08-21T11:27:01.243Z,25.43
2022-08-21T11:29:37.868Z,25.20
2022-08-21T11:32:16.337Z,25.16
2022-08-21T11:35:01.383Z,25.83
2022-08-21T11:37:52.652Z,25.87
2022-08-21T11:40:45.768Z,26.02
2022-08-21T11:43:24.125Z,25.91
2022-08-21T11:46:01.728Z,25.90
2022-08-21T11:48:39.968Z,27.13
2022-08-21T11:51:17.351Z,26.74
2022-08-21T11:53:54.224Z,26.65
2022-08-21T11:56:39.881Z,25.85
2022-08-21T11:59:14.640Z,26.43
2022-08-21T12:01:45.792Z,27.52
2022-08-21T12:04:35.799Z,26.45
2022-08-21T12:07:30.422Z,26.91
2022-08-21T12:09:58.417Z,27.62
2022-08-21T12:12:35.994Z,27.21
2022-08-21T12:15:20.680Z,26.59
2022-08-21T12:18:01.794Z,27.37
2022-08-21T12:20:28.205Z,27.50
2022-08-21T12:23:15.927Z,27.29
2022-08-21T12:26:01.905Z,26.53
2022-08-21T12:28:30.018Z,26.39
2022-08-21T12:30:58.157Z,26.57
2022-08-21T12:33:38.583Z,26.15
2022-08-21T12:36:13.075Z,26.16
2022-08-21T12:38:55.552Z,27.05
2022-08-21T12:41:35.504Z,27.27
2022-08-21T12:44:06.545Z,28.43
2022-08-21T12:46:40.840Z,29.62
2022-08-21T12:49:15.013Z,30.85
2022-08-21T12:51:56.934Z,28.62
2022-08-21T12:54:26.441Z,30.39
2022-08-21T12:57:02.135Z,30.42
2022-08-21T12:59:29.495Z,31.13
2022-08-21T13:01:57.319Z,31.19
2022-08-21T13:04:35.137Z,31.03
2022-08-21T13:07:01.593Z,31.29
2022-08-21T13:09:30.953Z,31.27
2022-08-21T13:11:58.484Z,30.89
2022-08-21T13:14:32.885Z,32.40
2022-08-21T13:17:00.834Z,30.03
2022-08-21T13:19:28.097Z,29.75
2022-08-21T13:21:54.534Z,29.17
2022-08-21T13:24:42.917Z,30.67
2022-08-21T13:27:19.481Z,32.59
2022-08-21T13:29:50.336Z,32.30
2022-08-21T13:32:24.836Z,33.41
2022-08-21T13:34:54.001Z,32.77
2022-08-21T13:37:22.095Z,32.81
2022-08-21T13:39:53.473Z,34.01
2022-08-21T13:42:20.272Z,32.42
2022-08-21T13:44:48.080Z,32.59
2022-08-21T13:47:16.235Z,33.08
2022-08-21T13:49:50.313Z,33.22
2022-08-21T13:52:22.851Z,34.46
2022-08-21T13:55:10.358Z,34.60
2022-08-21T13:57:38.691Z,33.59
2022-08-21T14:00:11.414Z,31.06
2022-08-21T14:02:41.756Z,31.49
2022-08-21T14:05:09.175Z,31.81
2022-08-21T14:07:37.628Z,32.19
2022-08-21T14:10:20.724Z,33.02
2022-08-21T14:12:53.723Z,34.29
2022-08-21T14:15:25.187Z,31.62
2022-08-21T14:17:52.282Z,32.44
2022-08-21T14:20:33.852Z,33.29
2022-08-21T14:23:00.880Z,35.21
2022-08-21T14:25:31.590Z,36.18
2022-08-21T14:28:09.801Z,32.04
2022-08-21T14:30:39.884Z,30.80
2022-08-21T14:33:13.518Z,30.71
2022-08-21T14:35:40.645Z,29.63
2022-08-21T14:38:18.366Z,29.26
2022-08-21T14:40:48.012Z,29.31
2022-08-21T14:43:14.465Z,29.79
2022-08-21T14:45:41.644Z,30.18
2022-08-21T14:48:08.671Z,28.97
2022-08-21T14:50:35.092Z,28.71
2022-08-21T14:53:01.776Z,27.90
2022-08-21T14:55:28.372Z,26.79
2022-08-21T14:57:56.979Z,26.26
2022-08-21T15:00:27.161Z,26.17
2022-08-21T15:03:02.958Z,25.85
2022-08-21T15:05:32.899Z,25.89
2022-08-21T15:08:00.056Z,25.83
2022-08-21T15:10:26.609Z,25.96
2022-08-21T15:12:53.021Z,26.08
2022-08-21T15:15:19.473Z,26.00
2022-08-21T15:17:48.328Z,26.06
2022-08-21T15:20:15.194Z,25.87
2022-08-21T15:22:41.606Z,26.12
2022-08-21T15:25:14.343Z,26.26
2022-08-21T15:27:40.898Z,26.26
2022-08-21T15:30:08.019Z,26.00
2022-08-21T15:32:34.476Z,26.18
2022-08-21T15:35:01.115Z,25.92
2022-08-21T15:37:27.633Z,25.73
2022-08-21T15:39:54.678Z,25.54
2022-08-21T15:42:22.089Z,26.06
2022-08-21T15:44:48.578Z,25.96
2022-08-21T15:47:20.417Z,26.15
2022-08-21T15:49:46.839Z,26.34
2022-08-21T15:52:15.847Z,26.64
2022-08-21T15:54:42.388Z,26.30
2022-08-21T15:57:10.832Z,26.27
2022-08-21T15:59:41.417Z,26.08
2022-08-21T16:02:15.109Z,26.71
2022-08-21T16:04:41.655Z,26.77
2022-08-21T16:07:09.812Z,27.17
2022-08-21T16:09:36.665Z,26.74
2022-08-21T16:12:05.378Z,26.89
2022-08-21T16:14:32.584Z,26.16
2022-08-21T16:16:59.170Z,26.25
2022-08-21T16:19:27.380Z,26.64
2022-08-21T16:21:53.781Z,26.82
2022-08-21T16:24:20.204Z,26.62
2022-08-21T16:26:46.692Z,26.91
2022-08-21T16:29:26.155Z,26.95
2022-08-21T16:31:53.612Z,26.48
2022-08-21T16:34:20.793Z,26.08
2022-08-21T16:36:47.902Z,25.85
2022-08-21T16:39:14.444Z,25.88
2022-08-21T16:41:40.927Z,25.92
2022-08-21T16:44:07.705Z,25.92
2022-08-21T16:46:38.973Z,26.36
2022-08-21T16:49:05.405Z,26.00
2022-08-21T16:51:31.808Z,26.11
2022-08-21T16:53:58.783Z,25.83
2022-08-21T16:56:25.361Z,25.74
2022-08-21T16:58:53.446Z,25.09
2022-08-21T17:01:24.629Z,25.18
2022-08-21T17:03:51.660Z,25.33
2022-08-21T17:06:18.880Z,25.33
2022-08-21T17:08:45.574Z,25.10
2022-08-21T17:11:42.283Z,25.24
2022-08-21T17:14:14.603Z,25.49
2022-08-21T17:16:43.021Z,25.15
2022-08-21T17:19:09.745Z,25.26
2022-08-21T17:21:36.158Z,25.13
2022-08-21T17:24:02.689Z,25.05
2022-08-21T17:26:29.097Z,24.99
2022-08-21T17:28:55.576Z,25.09
2022-08-21T17:31:22.318Z,25.13
2022-08-21T17:33:52.736Z,25.09
2022-08-21T17:36:25.571Z,24.86
2022-08-21T17:38:52.377Z,24.98
2022-08-21T17:41:22.292Z,24.98
2022-08-21T17:43:49.427Z,24.82
2022-08-21T17:46:19.955Z,24.47
2022-08-21T17:48:47.457Z,24.01
2022-08-21T17:51:14.460Z,24.02
2022-08-21T17:53:41.076Z,23.94
2022-08-21T17:56:07.672Z,23.86
2022-08-21T17:58:34.901Z,23.65
2022-08-21T18:01:05.723Z,23.56
2022-08-21T18:03:38.324Z,23.46
2022-08-21T18:06:05.267Z,23.34
2022-08-21T18:08:32.615Z,23.34
2022-08-21T18:10:59.815Z,23.27
2022-08-21T18:13:29.629Z,23.17
2022-08-21T18:15:57.077Z,23.04
2022-08-21T18:18:25.188Z,23.04
2022-08-21T18:20:52.897Z,22.98
2022-08-21T18:23:19.784Z,22.88
2022-08-21T18:25:59.559Z,22.86
2022-08-21T18:28:26.244Z,22.73
2022-08-21T18:30:54.281Z,22.49
2022-08-21T18:33:21.374Z,22.23
2022-08-21T18:35:48.114Z,22.13
2022-08-21T18:38:21.014Z,22.10
2022-08-21T18:40:55.228Z,22.06
2022-08-21T18:43:23.007Z,22.13
2022-08-21T18:45:49.584Z,21.86
2022-08-21T18:48:17.803Z,21.88
2022-08-21T18:50:45.532Z,21.84
2022-08-21T18:53:18.225Z,21.71
2022-08-21T18:55:54.150Z,21.52
2022-08-21T18:58:23.736Z,21.37
2022-08-21T19:00:51.466Z,21.32
2022-08-21T19:03:24.367Z,21.20
2022-08-21T19:05:53.142Z,21.11
2022-08-21T19:08:21.976Z,21.02
2022-08-21T19:10:50.126Z,21.05
2022-08-21T19:13:18.375Z,21.11
2022-08-21T19:15:49.778Z,21.12
2022-08-21T19:18:17.600Z,21.08
2022-08-21T19:20:47.339Z,21.06
2022-08-21T19:23:16.625Z,20.85
2022-08-21T19:25:45.276Z,20.66
2022-08-21T19:28:17.316Z,20.59
2022-08-21T19:30:45.909Z,20.51
2022-08-21T19:33:23.663Z,20.42
2022-08-21T19:36:10.260Z,20.39
2022-08-21T19:38:37.613Z,20.37
2022-08-21T19:41:05.202Z,20.65
2022-08-21T19:43:33.146Z,20.68
2022-08-21T19:46:00.637Z,20.22
2022-08-21T19:48:27.150Z,20.01
2022-08-21T19:50:53.789Z,19.97
2022-08-21T19:53:20.223Z,19.97
2022-08-21T19:55:48.127Z,19.99
2022-08-21T19:58:33.160Z,20.16
2022-08-21T20:00:59.738Z,20.23
2022-08-21T20:03:26.304Z,20.19
2022-08-21T20:08:39.158Z,20.01
2022-08-21T20:11:05.737Z,20.12
2022-08-21T20:13:33.687Z,20.07
2022-08-21T20:16:07.822Z,19.97
2022-08-21T20:18:36.208Z,20.06
2022-08-21T20:21:04.743Z,20.07
2022-08-21T20:23:31.339Z,20.14
2022-08-21T20:26:00.937Z,20.20
2022-08-21T20:28:28.809Z,20.25
2022-08-21T20:30:55.794Z,20.17
2022-08-21T20:33:22.368Z,20.31
2022-08-21T20:35:49.978Z,20.04
2022-08-21T20:38:16.841Z,20.05
2022-08-21T20:40:43.828Z,20.13
2022-08-21T20:43:12.886Z,19.98
2022-08-21T20:45:39.719Z,20.07
2022-08-21T20:48:18.805Z,19.90
2022-08-21T20:50:55.696Z,19.95
2022-08-21T20:53:47.788Z,19.91
2022-08-21T20:56:33.160Z,19.93
2022-08-21T20:59:06.383Z,19.72
2022-08-21T21:01:33.394Z,19.72
2022-08-21T21:04:15.895Z,19.71
2022-08-21T21:06:49.966Z,19.56
2022-08-21T21:09:34.877Z,19.55
2022-08-21T21:12:11.027Z,19.67
2022-08-21T21:14:45.050Z,19.67
2022-08-21T21:17:28.256Z,19.67
2022-08-21T21:20:07.968Z,19.59
2022-08-21T21:22:41.988Z,19.60
2022-08-21T21:25:39.984Z,19.53
2022-08-21T21:28:12.856Z,19.52
2022-08-21T21:30:46.453Z,19.68
2022-08-21T21:33:16.292Z,19.85
2022-08-21T21:35:49.726Z,19.84
2022-08-21T21:38:23.066Z,19.78
2022-08-21T21:41:15.708Z,19.67
2022-08-21T21:43:51.027Z,19.61
2022-08-21T21:46:31.084Z,19.61
2022-08-21T21:49:05.464Z,19.65
2022-08-21T21:51:46.659Z,19.56
2022-08-21T21:54:45.852Z,19.52
2022-08-21T21:57:49.481Z,19.57
2022-08-21T22:00:24.293Z,19.55
2022-08-21T22:03:12.518Z,19.55
2022-08-21T22:05:58.020Z,19.51
2022-08-21T22:08:33.502Z,19.54
2022-08-21T22:11:28.606Z,19.56
2022-08-21T22:14:08.540Z,19.48
2022-08-21T22:16:35.914Z,19.42
2022-08-21T22:19:18.468Z,19.44
2022-08-21T22:22:00.336Z,19.24
2022-08-21T22:24:32.123Z,19.26
2022-08-21T22:27:09.180Z,19.27
2022-08-21T22:29:48.625Z,19.04
2022-08-21T22:32:45.729Z,19.09
2022-08-21T22:35:25.815Z,19.05
2022-08-21T22:37:57.705Z,18.99
2022-08-21T22:40:31.372Z,19.10
2022-08-21T22:42:58.645Z,19.15
2022-08-21T22:45:26.570Z,19.11
2022-08-21T22:47:53.964Z,19.14
2022-08-21T22:50:26.786Z,19.16
2022-08-21T22:53:00.399Z,19.12
2022-08-21T22:55:39.300Z,19.01
2022-08-21T22:58:19.664Z,18.99
2022-08-21T23:00:57.795Z,19.02
2022-08-21T23:03:42.142Z,19.05
2022-08-21T23:06:35.022Z,19.16
2022-08-21T23:09:03.384Z,18.87
2022-08-21T23:11:43.042Z,18.96
2022-08-21T23:14:14.200Z,18.90
2022-08-21T23:16:53.351Z,18.70
2022-08-21T23:19:38.463Z,18.68
2022-08-21T23:25:31.860Z,18.47
2022-08-21T23:28:09.238Z,18.48
2022-08-21T23:30:41.158Z,18.48
2022-08-21T23:33:50.566Z,18.38
2022-08-21T23:36:59.760Z,18.47
2022-08-21T23:39:54.611Z,18.41
2022-08-21T23:42:38.685Z,18.36
2022-08-21T23:45:39.408Z,18.40
2022-08-21T23:48:29.386Z,18.27
2022-08-21T23:51:03.597Z,18.16
2022-08-21T23:53:35.494Z,18.08
2022-08-21T23:56:31.551Z,18.03
2022-08-21T23:59:28.157Z,17.85
